sensor_id;sensor_type;location;lat;lon;timestamp;temperature;humidity
23562;DHT22;11959;49.418;8.728;2023-04-24T00:00:20;12.20;99.90
23562;DHT22;11959;49.418;8.728;2023-04-24T00:02:46;12.30;99.90
23562;DHT22;11959;49.418;8.728;2023-04-24T00:05:14;12.30;99.90
23562;DHT22;11959;49.418;8.728;2023-04-24T00:07:41;12.20;99.90
23562;DHT22;11959;49.418;8.728;2023-04-24T00:10:07;12.20;99.90
23562;DHT22;11959;49.418;8.728;2023-04-24T00:12:33;12.20;99.90
23562;DHT22;11959;49.418;8.728;2023-04-24T00:14:59;12.20;99.90
23562;DHT22;11959;49.418;8.728;2023-04-24T00:17:25;12.20;99.90
23562;DHT22;11959;49.418;8.728;2023-04-24T00:19:50;12.20;99.90
23562;DHT22;11959;49.418;8.728;2023-04-24T00:22:17;12.20;99.90
23562;DHT22;11959;49.418;8.728;2023-04-24T00:24:42;12.20;99.90
23562;DHT22;11959;49.418;8.728;2023-04-24T00:27:08;12.20;99.90
23562;DHT22;11959;49.418;8.728;2023-04-24T00:29:34;12.20;99.90
23562;DHT22;11959;49.418;8.728;2023-04-24T00:31:59;12.20;99.90
23562;DHT22;11959;49.418;8.728;2023-04-24T00:34:25;12.20;99.90
23562;DHT22;11959;49.418;8.728;2023-04-24T00:36:51;12.20;99.90
23562;DHT22;11959;49.418;8.728;2023-04-24T00:39:21;12.20;99.90
23562;DHT22;11959;49.418;8.728;2023-04-24T00:41:47;12.20;99.90
23562;DHT22;11959;49.418;8.728;2023-04-24T00:44:14;12.20;99.90
23562;DHT22;11959;49.418;8.728;2023-04-24T00:46:40;12.20;99.90
23562;DHT22;11959;49.418;8.728;2023-04-24T00:49:06;12.20;99.90
23562;DHT22;11959;49.418;8.728;2023-04-24T00:51:32;12.20;99.90
23562;DHT22;11959;49.418;8.728;2023-04-24T00:53:59;12.30;99.90
23562;DHT22;11959;49.418;8.728;2023-04-24T00:56:25;12.30;99.90
23562;DHT22;11959;49.418;8.728;2023-04-24T00:58:51;12.30;99.90
23562;DHT22;11959;49.418;8.728;2023-04-24T01:01:20;12.30;99.90
23562;DHT22;11959;49.418;8.728;2023-04-24T01:03:46;12.30;99.90
23562;DHT22;11959;49.418;8.728;2023-04-24T01:06:13;12.30;99.90
23562;DHT22;11959;49.418;8.728;2023-04-24T01:08:39;12.40;99.90
23562;DHT22;11959;49.418;8.728;2023-04-24T01:11:06;12.30;99.90
23562;DHT22;11959;49.418;8.728;2023-04-24T01:13:33;12.30;99.90
23562;DHT22;11959;49.418;8.728;2023-04-24T01:15:59;12.40;99.90
23562;DHT22;11959;49.418;8.728;2023-04-24T01:18:26;12.40;99.90
23562;DHT22;11959;49.418;8.728;2023-04-24T01:20:56;12.40;99.90
23562;DHT22;11959;49.418;8.728;2023-04-24T01:23:22;12.40;99.90
23562;DHT22;11959;49.418;8.728;2023-04-24T01:25:50;12.40;99.90
23562;DHT22;11959;49.418;8.728;2023-04-24T01:28:16;12.40;99.90
23562;DHT22;11959;49.418;8.728;2023-04-24T01:30:43;12.40;99.90
23562;DHT22;11959;49.418;8.728;2023-04-24T01:33:09;12.40;99.90
23562;DHT22;11959;49.418;8.728;2023-04-24T01:35:36;12.40;99.90
23562;DHT22;11959;49.418;8.728;2023-04-24T01:38:02;12.40;99.90
23562;DHT22;11959;49.418;8.728;2023-04-24T01:40:28;12.40;99.90
23562;DHT22;11959;49.418;8.728;2023-04-24T01:42:54;12.40;99.90
23562;DHT22;11959;49.418;8.728;2023-04-24T01:45:20;12.40;99.90
23562;DHT22;11959;49.418;8.728;2023-04-24T01:47:46;12.40;99.90
23562;DHT22;11959;49.418;8.728;2023-04-24T01:50:13;12.40;99.90
23562;DHT22;11959;49.418;8.728;2023-04-24T01:52:39;12.40;99.90
23562;DHT22;11959;49.418;8.728;2023-04-24T01:55:05;12.40;99.90
23562;DHT22;11959;49.418;8.728;2023-04-24T01:57:32;12.40;99.90
23562;DHT22;11959;49.418;8.728;2023-04-24T01:59:58;12.40;99.90
23562;DHT22;11959;49.418;8.728;2023-04-24T02:02:24;12.30;99.90
23562;DHT22;11959;49.418;8.728;2023-04-24T02:04:53;12.30;99.90
23562;DHT22;11959;49.418;8.728;2023-04-24T02:07:18;12.40;99.90
23562;DHT22;11959;49.418;8.728;2023-04-24T02:09:44;12.40;99.90
23562;DHT22;11959;49.418;8.728;2023-04-24T02:12:10;12.40;99.90
23562;DHT22;11959;49.418;8.728;2023-04-24T02:14:36;12.40;99.90
23562;DHT22;11959;49.418;8.728;2023-04-24T02:17:02;12.50;99.90
23562;DHT22;11959;49.418;8.728;2023-04-24T02:19:27;12.40;99.90
23562;DHT22;11959;49.418;8.728;2023-04-24T02:21:53;12.40;99.90
23562;DHT22;11959;49.418;8.728;2023-04-24T02:24:18;12.40;99.90
23562;DHT22;11959;49.418;8.728;2023-04-24T02:26:44;12.40;99.90
23562;DHT22;11959;49.418;8.728;2023-04-24T02:29:10;12.40;99.90
23562;DHT22;11959;49.418;8.728;2023-04-24T02:31:35;12.40;99.90
23562;DHT22;11959;49.418;8.728;2023-04-24T02:34:01;12.40;99.90
23562;DHT22;11959;49.418;8.728;2023-04-24T02:36:27;12.40;99.90
23562;DHT22;11959;49.418;8.728;2023-04-24T02:38:52;12.40;99.90
23562;DHT22;11959;49.418;8.728;2023-04-24T02:41:18;12.30;99.90
23562;DHT22;11959;49.418;8.728;2023-04-24T02:43:45;12.30;99.90
23562;DHT22;11959;49.418;8.728;2023-04-24T02:46:10;12.40;99.90
23562;DHT22;11959;49.418;8.728;2023-04-24T02:48:36;12.40;99.90
23562;DHT22;11959;49.418;8.728;2023-04-24T02:51:02;12.30;99.90
23562;DHT22;11959;49.418;8.728;2023-04-24T02:53:38;12.40;99.90
23562;DHT22;11959;49.418;8.728;2023-04-24T02:56:03;12.40;99.90
23562;DHT22;11959;49.418;8.728;2023-04-24T02:58:30;12.40;99.90
23562;DHT22;11959;49.418;8.728;2023-04-24T03:00:55;12.40;99.90
23562;DHT22;11959;49.418;8.728;2023-04-24T03:03:21;12.40;99.90
23562;DHT22;11959;49.418;8.728;2023-04-24T03:05:47;12.30;99.90
23562;DHT22;11959;49.418;8.728;2023-04-24T03:08:13;12.30;99.90
23562;DHT22;11959;49.418;8.728;2023-04-24T03:10:39;12.30;99.90
23562;DHT22;11959;49.418;8.728;2023-04-24T03:13:05;12.30;99.90
23562;DHT22;11959;49.418;8.728;2023-04-24T03:15:31;12.30;99.90
23562;DHT22;11959;49.418;8.728;2023-04-24T03:17:57;12.30;99.90
23562;DHT22;11959;49.418;8.728;2023-04-24T03:20:22;12.20;99.90
23562;DHT22;11959;49.418;8.728;2023-04-24T03:22:48;12.10;99.90
23562;DHT22;11959;49.418;8.728;2023-04-24T03:25:14;11.80;99.90
23562;DHT22;11959;49.418;8.728;2023-04-24T03:27:39;11.60;99.90
23562;DHT22;11959;49.418;8.728;2023-04-24T03:30:07;11.50;99.90
23562;DHT22;11959;49.418;8.728;2023-04-24T03:32:33;11.40;99.90
23562;DHT22;11959;49.418;8.728;2023-04-24T03:34:58;11.30;99.90
23562;DHT22;11959;49.418;8.728;2023-04-24T03:37:24;11.30;99.90
23562;DHT22;11959;49.418;8.728;2023-04-24T03:39:50;11.30;99.90
23562;DHT22;11959;49.418;8.728;2023-04-24T03:42:15;11.30;99.90
23562;DHT22;11959;49.418;8.728;2023-04-24T03:44:41;11.30;99.90
23562;DHT22;11959;49.418;8.728;2023-04-24T03:47:06;11.30;99.90
23562;DHT22;11959;49.418;8.728;2023-04-24T03:49:32;11.30;99.90
23562;DHT22;11959;49.418;8.728;2023-04-24T03:51:58;11.30;99.90
23562;DHT22;11959;49.418;8.728;2023-04-24T03:54:23;11.20;99.90
23562;DHT22;11959;49.418;8.728;2023-04-24T03:56:49;11.10;99.90
23562;DHT22;11959;49.418;8.728;2023-04-24T03:59:15;11.10;99.90
23562;DHT22;11959;49.418;8.728;2023-04-24T04:01:41;11.00;99.90
23562;DHT22;11959;49.418;8.728;2023-04-24T04:04:06;11.00;99.90
23562;DHT22;11959;49.418;8.728;2023-04-24T04:06:33;11.00;99.90
23562;DHT22;11959;49.418;8.728;2023-04-24T04:08:59;11.00;99.90
23562;DHT22;11959;49.418;8.728;2023-04-24T04:11:25;10.90;99.90
23562;DHT22;11959;49.418;8.728;2023-04-24T04:13:51;10.80;99.90
23562;DHT22;11959;49.418;8.728;2023-04-24T04:16:17;10.80;99.90
23562;DHT22;11959;49.418;8.728;2023-04-24T04:18:43;10.70;99.90
23562;DHT22;11959;49.418;8.728;2023-04-24T04:21:10;10.70;99.90
23562;DHT22;11959;49.418;8.728;2023-04-24T04:23:36;10.60;99.90
23562;DHT22;11959;49.418;8.728;2023-04-24T04:26:02;10.60;99.90
23562;DHT22;11959;49.418;8.728;2023-04-24T04:28:29;10.60;99.90
23562;DHT22;11959;49.418;8.728;2023-04-24T04:30:56;10.60;99.90
23562;DHT22;11959;49.418;8.728;2023-04-24T04:33:23;10.50;99.90
23562;DHT22;11959;49.418;8.728;2023-04-24T04:35:49;10.40;99.90
23562;DHT22;11959;49.418;8.728;2023-04-24T04:38:15;10.40;99.90
23562;DHT22;11959;49.418;8.728;2023-04-24T04:40:42;10.40;99.90
23562;DHT22;11959;49.418;8.728;2023-04-24T04:43:08;10.40;99.90
23562;DHT22;11959;49.418;8.728;2023-04-24T04:45:34;10.40;99.90
23562;DHT22;11959;49.418;8.728;2023-04-24T04:48:00;10.30;99.90
23562;DHT22;11959;49.418;8.728;2023-04-24T04:50:27;10.30;99.90
23562;DHT22;11959;49.418;8.728;2023-04-24T04:52:53;10.30;99.90
23562;DHT22;11959;49.418;8.728;2023-04-24T04:55:18;10.20;99.90
23562;DHT22;11959;49.418;8.728;2023-04-24T04:57:47;10.20;99.90
23562;DHT22;11959;49.418;8.728;2023-04-24T05:00:13;10.20;99.90
23562;DHT22;11959;49.418;8.728;2023-04-24T05:02:39;10.20;99.90
23562;DHT22;11959;49.418;8.728;2023-04-24T05:05:05;10.20;99.90
23562;DHT22;11959;49.418;8.728;2023-04-24T05:07:31;10.20;99.90
23562;DHT22;11959;49.418;8.728;2023-04-24T05:09:57;10.20;99.90
23562;DHT22;11959;49.418;8.728;2023-04-24T05:12:22;10.30;99.90
23562;DHT22;11959;49.418;8.728;2023-04-24T05:14:48;10.30;99.90
23562;DHT22;11959;49.418;8.728;2023-04-24T05:17:14;10.30;99.90
23562;DHT22;11959;49.418;8.728;2023-04-24T05:19:40;10.30;99.90
23562;DHT22;11959;49.418;8.728;2023-04-24T05:22:06;10.30;99.90
23562;DHT22;11959;49.418;8.728;2023-04-24T05:24:33;10.30;99.90
23562;DHT22;11959;49.418;8.728;2023-04-24T05:26:59;10.30;99.90
23562;DHT22;11959;49.418;8.728;2023-04-24T05:29:25;10.30;99.90
23562;DHT22;11959;49.418;8.728;2023-04-24T05:31:51;10.40;99.90
23562;DHT22;11959;49.418;8.728;2023-04-24T05:34:17;10.40;99.90
23562;DHT22;11959;49.418;8.728;2023-04-24T05:36:43;10.50;99.90
23562;DHT22;11959;49.418;8.728;2023-04-24T05:39:09;10.50;99.90
23562;DHT22;11959;49.418;8.728;2023-04-24T05:41:35;10.50;99.90
23562;DHT22;11959;49.418;8.728;2023-04-24T05:44:00;10.50;99.90
23562;DHT22;11959;49.418;8.728;2023-04-24T05:46:26;10.60;99.90
23562;DHT22;11959;49.418;8.728;2023-04-24T05:48:52;10.60;99.90
23562;DHT22;11959;49.418;8.728;2023-04-24T05:51:17;10.60;99.90
23562;DHT22;11959;49.418;8.728;2023-04-24T05:53:43;10.50;99.90
23562;DHT22;11959;49.418;8.728;2023-04-24T05:56:09;10.40;99.90
23562;DHT22;11959;49.418;8.728;2023-04-24T05:58:35;10.40;99.90
23562;DHT22;11959;49.418;8.728;2023-04-24T06:01:00;10.50;99.90
23562;DHT22;11959;49.418;8.728;2023-04-24T06:03:27;10.60;99.90
23562;DHT22;11959;49.418;8.728;2023-04-24T06:05:53;10.60;99.90
23562;DHT22;11959;49.418;8.728;2023-04-24T06:08:19;10.70;99.90
23562;DHT22;11959;49.418;8.728;2023-04-24T06:10:44;10.80;99.90
23562;DHT22;11959;49.418;8.728;2023-04-24T06:13:10;10.80;99.90
23562;DHT22;11959;49.418;8.728;2023-04-24T06:15:37;10.80;99.90
23562;DHT22;11959;49.418;8.728;2023-04-24T06:18:03;10.80;99.90
23562;DHT22;11959;49.418;8.728;2023-04-24T06:20:28;10.90;99.90
23562;DHT22;11959;49.418;8.728;2023-04-24T06:22:55;10.90;99.90
23562;DHT22;11959;49.418;8.728;2023-04-24T06:25:21;10.70;99.90
23562;DHT22;11959;49.418;8.728;2023-04-24T06:27:47;10.70;99.90
23562;DHT22;11959;49.418;8.728;2023-04-24T06:30:12;10.60;99.90
23562;DHT22;11959;49.418;8.728;2023-04-24T06:32:39;10.60;99.90
23562;DHT22;11959;49.418;8.728;2023-04-24T06:35:05;10.60;99.90
23562;DHT22;11959;49.418;8.728;2023-04-24T06:37:33;10.60;99.90
23562;DHT22;11959;49.418;8.728;2023-04-24T06:39:59;10.60;99.90
23562;DHT22;11959;49.418;8.728;2023-04-24T06:42:24;10.60;99.90
23562;DHT22;11959;49.418;8.728;2023-04-24T06:44:50;10.60;99.90
23562;DHT22;11959;49.418;8.728;2023-04-24T06:47:16;10.60;99.90
23562;DHT22;11959;49.418;8.728;2023-04-24T06:49:42;10.70;99.90
23562;DHT22;11959;49.418;8.728;2023-04-24T06:52:08;10.70;99.90
23562;DHT22;11959;49.418;8.728;2023-04-24T06:54:34;10.80;99.90
23562;DHT22;11959;49.418;8.728;2023-04-24T06:57:00;10.80;99.90
23562;DHT22;11959;49.418;8.728;2023-04-24T06:59:26;10.90;99.90
23562;DHT22;11959;49.418;8.728;2023-04-24T07:01:53;11.00;99.90
23562;DHT22;11959;49.418;8.728;2023-04-24T07:04:19;11.00;99.90
23562;DHT22;11959;49.418;8.728;2023-04-24T07:06:45;11.00;99.90
23562;DHT22;11959;49.418;8.728;2023-04-24T07:09:12;11.00;99.90
23562;DHT22;11959;49.418;8.728;2023-04-24T07:11:39;10.90;99.90
23562;DHT22;11959;49.418;8.728;2023-04-24T07:14:06;11.00;99.90
23562;DHT22;11959;49.418;8.728;2023-04-24T07:16:32;10.80;99.90
23562;DHT22;11959;49.418;8.728;2023-04-24T07:18:58;10.60;99.90
23562;DHT22;11959;49.418;8.728;2023-04-24T07:21:23;10.40;99.90
23562;DHT22;11959;49.418;8.728;2023-04-24T07:23:50;10.30;99.90
23562;DHT22;11959;49.418;8.728;2023-04-24T07:26:15;10.20;99.90
23562;DHT22;11959;49.418;8.728;2023-04-24T07:28:41;10.20;99.90
23562;DHT22;11959;49.418;8.728;2023-04-24T07:31:07;10.20;99.90
23562;DHT22;11959;49.418;8.728;2023-04-24T07:33:33;10.30;99.90
23562;DHT22;11959;49.418;8.728;2023-04-24T07:35:59;10.30;99.90
23562;DHT22;11959;49.418;8.728;2023-04-24T07:38:25;10.40;99.90
23562;DHT22;11959;49.418;8.728;2023-04-24T07:40:51;10.50;99.90
23562;DHT22;11959;49.418;8.728;2023-04-24T07:43:17;10.50;99.90
23562;DHT22;11959;49.418;8.728;2023-04-24T07:45:44;10.60;99.90
23562;DHT22;11959;49.418;8.728;2023-04-24T07:48:10;10.60;99.90
23562;DHT22;11959;49.418;8.728;2023-04-24T07:50:35;10.80;99.90
23562;DHT22;11959;49.418;8.728;2023-04-24T07:53:02;10.80;99.90
23562;DHT22;11959;49.418;8.728;2023-04-24T07:55:27;10.90;99.90
23562;DHT22;11959;49.418;8.728;2023-04-24T07:57:53;11.00;99.90
23562;DHT22;11959;49.418;8.728;2023-04-24T08:00:19;11.10;99.90
23562;DHT22;11959;49.418;8.728;2023-04-24T08:02:45;11.10;99.90
23562;DHT22;11959;49.418;8.728;2023-04-24T08:05:11;11.20;99.90
23562;DHT22;11959;49.418;8.728;2023-04-24T08:07:36;11.20;99.90
23562;DHT22;11959;49.418;8.728;2023-04-24T08:10:03;11.30;99.90
23562;DHT22;11959;49.418;8.728;2023-04-24T08:12:29;11.30;99.90
23562;DHT22;11959;49.418;8.728;2023-04-24T08:14:55;11.40;99.90
23562;DHT22;11959;49.418;8.728;2023-04-24T08:17:21;11.40;99.90
23562;DHT22;11959;49.418;8.728;2023-04-24T08:19:46;11.50;99.90
23562;DHT22;11959;49.418;8.728;2023-04-24T08:22:16;11.60;99.90
23562;DHT22;11959;49.418;8.728;2023-04-24T08:24:42;11.70;99.90
23562;DHT22;11959;49.418;8.728;2023-04-24T08:27:09;11.70;99.90
23562;DHT22;11959;49.418;8.728;2023-04-24T08:29:35;11.80;99.90
23562;DHT22;11959;49.418;8.728;2023-04-24T08:32:01;11.80;99.90
23562;DHT22;11959;49.418;8.728;2023-04-24T08:34:27;11.80;99.90
23562;DHT22;11959;49.418;8.728;2023-04-24T08:36:53;11.90;99.90
23562;DHT22;11959;49.418;8.728;2023-04-24T08:39:20;11.80;99.90
23562;DHT22;11959;49.418;8.728;2023-04-24T08:41:48;11.90;99.90
23562;DHT22;11959;49.418;8.728;2023-04-24T08:44:14;11.80;99.90
23562;DHT22;11959;49.418;8.728;2023-04-24T08:46:43;11.80;99.90
23562;DHT22;11959;49.418;8.728;2023-04-24T08:49:12;11.70;99.90
23562;DHT22;11959;49.418;8.728;2023-04-24T08:51:39;11.60;99.90
23562;DHT22;11959;49.418;8.728;2023-04-24T08:54:05;11.50;99.90
23562;DHT22;11959;49.418;8.728;2023-04-24T08:56:33;11.50;99.90
23562;DHT22;11959;49.418;8.728;2023-04-24T08:59:00;11.40;99.90
23562;DHT22;11959;49.418;8.728;2023-04-24T09:01:26;11.40;99.90
23562;DHT22;11959;49.418;8.728;2023-04-24T09:03:53;11.30;99.90
23562;DHT22;11959;49.418;8.728;2023-04-24T09:06:19;11.40;99.90
23562;DHT22;11959;49.418;8.728;2023-04-24T09:08:47;11.30;99.90
23562;DHT22;11959;49.418;8.728;2023-04-24T09:11:14;11.40;99.90
23562;DHT22;11959;49.418;8.728;2023-04-24T09:13:40;11.50;99.90
23562;DHT22;11959;49.418;8.728;2023-04-24T09:16:06;11.50;99.90
23562;DHT22;11959;49.418;8.728;2023-04-24T09:18:32;11.70;99.90
23562;DHT22;11959;49.418;8.728;2023-04-24T09:21:03;11.80;99.90
23562;DHT22;11959;49.418;8.728;2023-04-24T09:23:30;11.90;99.90
23562;DHT22;11959;49.418;8.728;2023-04-24T09:25:57;12.00;99.90
23562;DHT22;11959;49.418;8.728;2023-04-24T09:28:30;12.00;99.90
23562;DHT22;11959;49.418;8.728;2023-04-24T09:33:29;12.00;99.90
23562;DHT22;11959;49.418;8.728;2023-04-24T09:35:55;11.90;99.90
23562;DHT22;11959;49.418;8.728;2023-04-24T09:38:34;11.80;99.90
23562;DHT22;11959;49.418;8.728;2023-04-24T09:41:02;11.70;99.90
23562;DHT22;11959;49.418;8.728;2023-04-24T09:43:28;11.70;99.90
23562;DHT22;11959;49.418;8.728;2023-04-24T09:45:56;11.60;99.90
23562;DHT22;11959;49.418;8.728;2023-04-24T09:48:36;11.60;99.90
23562;DHT22;11959;49.418;8.728;2023-04-24T09:51:04;11.50;99.90
23562;DHT22;11959;49.418;8.728;2023-04-24T09:53:32;11.50;99.90
23562;DHT22;11959;49.418;8.728;2023-04-24T09:56:08;11.50;99.90
23562;DHT22;11959;49.418;8.728;2023-04-24T09:58:36;11.50;99.90
23562;DHT22;11959;49.418;8.728;2023-04-24T10:01:01;11.50;99.90
23562;DHT22;11959;49.418;8.728;2023-04-24T10:03:30;11.50;99.90
23562;DHT22;11959;49.418;8.728;2023-04-24T10:06:03;11.60;99.90
23562;DHT22;11959;49.418;8.728;2023-04-24T10:08:35;11.60;99.90
23562;DHT22;11959;49.418;8.728;2023-04-24T10:11:01;11.70;99.90
23562;DHT22;11959;49.418;8.728;2023-04-24T10:13:28;11.70;99.90
23562;DHT22;11959;49.418;8.728;2023-04-24T10:15:54;11.70;99.90
23562;DHT22;11959;49.418;8.728;2023-04-24T10:18:21;11.70;99.90
23562;DHT22;11959;49.418;8.728;2023-04-24T10:20:47;11.60;99.90
23562;DHT22;11959;49.418;8.728;2023-04-24T10:23:14;11.60;99.90
23562;DHT22;11959;49.418;8.728;2023-04-24T10:25:40;11.60;99.90
23562;DHT22;11959;49.418;8.728;2023-04-24T10:28:06;11.60;99.90
23562;DHT22;11959;49.418;8.728;2023-04-24T10:30:33;11.60;99.90
23562;DHT22;11959;49.418;8.728;2023-04-24T10:33:04;11.60;99.90
23562;DHT22;11959;49.418;8.728;2023-04-24T10:35:42;11.60;99.90
23562;DHT22;11959;49.418;8.728;2023-04-24T10:38:12;11.60;99.90
23562;DHT22;11959;49.418;8.728;2023-04-24T10:40:37;11.50;99.90
23562;DHT22;11959;49.418;8.728;2023-04-24T10:43:04;11.40;99.90
23562;DHT22;11959;49.418;8.728;2023-04-24T10:45:35;11.30;99.90
23562;DHT22;11959;49.418;8.728;2023-04-24T10:48:03;11.30;99.90
23562;DHT22;11959;49.418;8.728;2023-04-24T10:50:56;11.30;99.90
23562;DHT22;11959;49.418;8.728;2023-04-24T10:53:25;11.40;99.90
23562;DHT22;11959;49.418;8.728;2023-04-24T10:55:58;11.50;99.90
23562;DHT22;11959;49.418;8.728;2023-04-24T10:58:35;11.60;99.90
23562;DHT22;11959;49.418;8.728;2023-04-24T11:01:01;11.70;99.90
23562;DHT22;11959;49.418;8.728;2023-04-24T11:03:31;11.80;99.90
23562;DHT22;11959;49.418;8.728;2023-04-24T11:05:58;11.80;99.90
23562;DHT22;11959;49.418;8.728;2023-04-24T11:10:56;11.80;99.90
23562;DHT22;11959;49.418;8.728;2023-04-24T11:13:24;11.70;99.90
23562;DHT22;11959;49.418;8.728;2023-04-24T11:18:39;11.70;99.90
23562;DHT22;11959;49.418;8.728;2023-04-24T11:21:18;11.70;99.90
23562;DHT22;11959;49.418;8.728;2023-04-24T11:23:45;11.80;99.90
23562;DHT22;11959;49.418;8.728;2023-04-24T11:26:19;11.80;99.90
23562;DHT22;11959;49.418;8.728;2023-04-24T11:28:47;11.90;99.90
23562;DHT22;11959;49.418;8.728;2023-04-24T11:34:13;11.80;99.90
23562;DHT22;11959;49.418;8.728;2023-04-24T11:36:43;11.80;99.90
23562;DHT22;11959;49.418;8.728;2023-04-24T11:39:09;11.90;99.90
23562;DHT22;11959;49.418;8.728;2023-04-24T11:41:37;11.90;99.90
23562;DHT22;11959;49.418;8.728;2023-04-24T11:44:03;11.90;99.90
23562;DHT22;11959;49.418;8.728;2023-04-24T11:46:31;11.90;99.90
23562;DHT22;11959;49.418;8.728;2023-04-24T11:48:57;11.90;99.90
23562;DHT22;11959;49.418;8.728;2023-04-24T11:51:24;11.90;99.90
23562;DHT22;11959;49.418;8.728;2023-04-24T11:53:56;12.00;99.90
23562;DHT22;11959;49.418;8.728;2023-04-24T11:56:23;12.20;99.90
23562;DHT22;11959;49.418;8.728;2023-04-24T11:58:52;12.30;99.90
23562;DHT22;11959;49.418;8.728;2023-04-24T12:01:19;12.40;99.90
23562;DHT22;11959;49.418;8.728;2023-04-24T12:03:50;12.30;99.90
23562;DHT22;11959;49.418;8.728;2023-04-24T12:06:19;12.30;99.90
23562;DHT22;11959;49.418;8.728;2023-04-24T12:08:48;12.40;99.90
23562;DHT22;11959;49.418;8.728;2023-04-24T12:11:16;12.30;99.90
23562;DHT22;11959;49.418;8.728;2023-04-24T12:13:43;12.30;99.90
23562;DHT22;11959;49.418;8.728;2023-04-24T12:16:09;12.10;99.90
23562;DHT22;11959;49.418;8.728;2023-04-24T12:18:34;12.20;99.90
23562;DHT22;11959;49.418;8.728;2023-04-24T12:21:19;12.20;99.90
23562;DHT22;11959;49.418;8.728;2023-04-24T12:23:45;12.10;99.90
23562;DHT22;11959;49.418;8.728;2023-04-24T12:26:12;12.00;99.90
23562;DHT22;11959;49.418;8.728;2023-04-24T12:28:41;12.00;99.90
23562;DHT22;11959;49.418;8.728;2023-04-24T12:31:07;12.00;99.90
23562;DHT22;11959;49.418;8.728;2023-04-24T12:33:34;12.00;99.90
23562;DHT22;11959;49.418;8.728;2023-04-24T12:36:01;12.00;99.90
23562;DHT22;11959;49.418;8.728;2023-04-24T12:38:28;12.10;99.90
23562;DHT22;11959;49.418;8.728;2023-04-24T12:41:13;12.20;99.90
23562;DHT22;11959;49.418;8.728;2023-04-24T12:43:39;12.40;99.90
23562;DHT22;11959;49.418;8.728;2023-04-24T12:46:15;12.60;99.90
23562;DHT22;11959;49.418;8.728;2023-04-24T12:48:41;12.80;99.90
23562;DHT22;11959;49.418;8.728;2023-04-24T12:51:06;13.00;99.90
23562;DHT22;11959;49.418;8.728;2023-04-24T12:53:32;13.10;99.90
23562;DHT22;11959;49.418;8.728;2023-04-24T12:55:58;13.10;99.90
23562;DHT22;11959;49.418;8.728;2023-04-24T12:58:24;13.10;99.90
23562;DHT22;11959;49.418;8.728;2023-04-24T13:00:50;13.30;99.90
23562;DHT22;11959;49.418;8.728;2023-04-24T13:03:15;13.30;99.90
23562;DHT22;11959;49.418;8.728;2023-04-24T13:05:42;13.30;99.90
23562;DHT22;11959;49.418;8.728;2023-04-24T13:08:08;13.40;99.90
23562;DHT22;11959;49.418;8.728;2023-04-24T13:10:34;13.30;99.90
23562;DHT22;11959;49.418;8.728;2023-04-24T13:13:00;13.40;99.90
23562;DHT22;11959;49.418;8.728;2023-04-24T13:15:26;13.30;99.90
23562;DHT22;11959;49.418;8.728;2023-04-24T13:17:51;13.40;99.90
23562;DHT22;11959;49.418;8.728;2023-04-24T13:20:18;13.50;99.90
23562;DHT22;11959;49.418;8.728;2023-04-24T13:22:43;13.50;99.90
23562;DHT22;11959;49.418;8.728;2023-04-24T13:25:09;13.40;99.90
23562;DHT22;11959;49.418;8.728;2023-04-24T13:27:37;13.40;99.90
23562;DHT22;11959;49.418;8.728;2023-04-24T13:30:03;13.40;99.90
23562;DHT22;11959;49.418;8.728;2023-04-24T13:32:29;13.30;99.90
23562;DHT22;11959;49.418;8.728;2023-04-24T13:34:55;13.30;99.90
23562;DHT22;11959;49.418;8.728;2023-04-24T13:37:21;13.20;99.90
23562;DHT22;11959;49.418;8.728;2023-04-24T13:39:48;13.20;99.90
23562;DHT22;11959;49.418;8.728;2023-04-24T13:42:14;13.20;99.90
23562;DHT22;11959;49.418;8.728;2023-04-24T13:44:40;13.30;99.90
23562;DHT22;11959;49.418;8.728;2023-04-24T13:47:05;13.20;99.90
23562;DHT22;11959;49.418;8.728;2023-04-24T13:49:31;13.40;99.90
23562;DHT22;11959;49.418;8.728;2023-04-24T13:51:57;13.50;99.90
23562;DHT22;11959;49.418;8.728;2023-04-24T13:54:22;13.60;99.90
23562;DHT22;11959;49.418;8.728;2023-04-24T13:56:51;13.60;99.90
23562;DHT22;11959;49.418;8.728;2023-04-24T13:59:17;13.60;99.90
23562;DHT22;11959;49.418;8.728;2023-04-24T14:01:42;13.50;99.90
23562;DHT22;11959;49.418;8.728;2023-04-24T14:04:10;13.40;99.90
23562;DHT22;11959;49.418;8.728;2023-04-24T14:06:36;13.40;99.90
23562;DHT22;11959;49.418;8.728;2023-04-24T14:09:02;13.40;99.90
23562;DHT22;11959;49.418;8.728;2023-04-24T14:11:29;13.30;99.90
23562;DHT22;11959;49.418;8.728;2023-04-24T14:13:55;13.30;99.90
23562;DHT22;11959;49.418;8.728;2023-04-24T14:16:24;13.20;99.90
23562;DHT22;11959;49.418;8.728;2023-04-24T14:18:50;13.20;99.90
23562;DHT22;11959;49.418;8.728;2023-04-24T14:21:16;13.20;99.90
23562;DHT22;11959;49.418;8.728;2023-04-24T14:23:41;13.20;99.90
23562;DHT22;11959;49.418;8.728;2023-04-24T14:26:07;13.10;99.90
23562;DHT22;11959;49.418;8.728;2023-04-24T14:28:33;13.00;99.90
23562;DHT22;11959;49.418;8.728;2023-04-24T14:30:58;12.90;99.90
23562;DHT22;11959;49.418;8.728;2023-04-24T14:33:24;12.70;99.90
23562;DHT22;11959;49.418;8.728;2023-04-24T14:35:49;12.70;99.90
23562;DHT22;11959;49.418;8.728;2023-04-24T14:38:15;12.50;99.90
23562;DHT22;11959;49.418;8.728;2023-04-24T14:40:41;12.30;99.90
23562;DHT22;11959;49.418;8.728;2023-04-24T14:43:06;12.30;99.90
23562;DHT22;11959;49.418;8.728;2023-04-24T14:45:32;12.20;99.90
23562;DHT22;11959;49.418;8.728;2023-04-24T14:47:58;12.10;99.90
23562;DHT22;11959;49.418;8.728;2023-04-24T14:50:23;12.10;99.90
23562;DHT22;11959;49.418;8.728;2023-04-24T14:52:53;12.10;99.90
23562;DHT22;11959;49.418;8.728;2023-04-24T14:55:19;12.00;99.90
23562;DHT22;11959;49.418;8.728;2023-04-24T14:57:45;11.90;99.90
23562;DHT22;11959;49.418;8.728;2023-04-24T15:00:11;11.80;99.90
23562;DHT22;11959;49.418;8.728;2023-04-24T15:02:37;11.70;99.90
23562;DHT22;11959;49.418;8.728;2023-04-24T15:05:07;11.60;99.90
23562;DHT22;11959;49.418;8.728;2023-04-24T15:07:33;11.50;99.90
23562;DHT22;11959;49.418;8.728;2023-04-24T15:10:00;11.50;99.90
23562;DHT22;11959;49.418;8.728;2023-04-24T15:12:26;11.50;99.90
23562;DHT22;11959;49.418;8.728;2023-04-24T15:14:54;11.50;99.90
23562;DHT22;11959;49.418;8.728;2023-04-24T15:17:19;11.50;99.90
23562;DHT22;11959;49.418;8.728;2023-04-24T15:19:45;11.40;99.90
23562;DHT22;11959;49.418;8.728;2023-04-24T15:22:11;11.30;99.90
23562;DHT22;11959;49.418;8.728;2023-04-24T15:24:36;11.30;99.90
23562;DHT22;11959;49.418;8.728;2023-04-24T15:27:02;11.30;99.90
23562;DHT22;11959;49.418;8.728;2023-04-24T15:29:28;11.40;99.90
23562;DHT22;11959;49.418;8.728;2023-04-24T15:31:54;11.40;99.90
23562;DHT22;11959;49.418;8.728;2023-04-24T15:34:20;11.40;99.90
23562;DHT22;11959;49.418;8.728;2023-04-24T15:36:46;11.40;99.90